Time;durP1;ratioP1;P1;durP2;ratioP2;P2;SDS_P1;SDS_P2;PMS_P1;PMS_P2;Temp;Humidity;BMP_temperature;BMP_pressure;BME280_temperature;BME280_humidity;BME280_pressure;Samples;Min_cycle;Max_cycle;Signal;HPM_P1;HPM_P2
2021/10/16 00:01:21;;;;;;;7.90;4.30;;;;;;;9.69;79.00;100369.31;88613;1279;81491;-62
2021/10/16 00:03:28;;;;;;;9.00;4.10;;;;;;;9.70;79.00;100370.52;88595;1280;96394;-72
2021/10/16 00:05:36;;;;;;;9.30;4.30;;;;;;;9.72;79.09;100372.05;88632;1281;87148;-72
2021/10/16 00:07:46;;;;;;;9.30;4.60;;;;;;;9.75;79.13;100368.85;88568;1280;93607;-74
2021/10/16 00:09:57;;;;;;;8.10;4.40;;;;;;;9.77;79.10;100374.40;88651;1281;79503;-73
2021/10/16 00:12:06;;;;;;;8.80;4.10;;;;;;;9.76;79.15;100372.11;88589;1279;81624;-73
2021/10/16 00:14:16;;;;;;;7.30;3.70;;;;;;;9.76;79.07;100373.22;88623;1281;96945;-63
2021/10/16 00:16:24;;;;;;;8.00;3.90;;;;;;;9.76;79.08;100371.94;88602;1279;89424;-63
2021/10/16 00:18:32;;;;;;;9.00;4.00;;;;;;;9.74;79.15;100368.73;88562;1279;93827;-63
2021/10/16 00:20:43;;;;;;;6.80;3.70;;;;;;;9.75;79.16;100363.29;88594;1280;78436;-64
2021/10/16 00:22:54;;;;;;;11.80;4.30;;;;;;;9.75;79.23;100364.87;88614;1279;82349;-61
2021/10/16 00:25:01;;;;;;;7.30;3.50;;;;;;;9.72;79.23;100365.78;88571;1279;96994;-72
2021/10/16 00:27:09;;;;;;;8.70;3.70;;;;;;;9.69;79.18;100368.41;88577;1279;87987;-74
2021/10/16 00:29:16;;;;;;;7.30;3.40;;;;;;;9.72;79.17;100373.00;88610;1280;93599;-62
2021/10/16 00:31:24;;;;;;;9.50;3.70;;;;;;;9.72;79.28;100371.48;88646;1279;79233;-62
2021/10/16 00:33:31;;;;;;;8.20;3.60;;;;;;;9.71;79.20;100369.53;88604;1279;83291;-62
2021/10/16 00:35:39;;;;;;;7.00;3.20;;;;;;;9.69;79.27;100374.61;88659;1279;97906;-62
2021/10/16 00:37:49;;;;;;;7.60;3.30;;;;;;;9.69;79.24;100379.00;88612;1281;88244;-63
2021/10/16 00:39:57;;;;;;;9.00;2.80;;;;;;;9.71;79.26;100379.17;88663;1279;95332;-74
2021/10/16 00:42:07;;;;;;;5.70;3.50;;;;;;;9.73;79.21;100383.58;88604;1279;78780;-73
2021/10/16 00:44:22;;;;;;;7.20;3.40;;;;;;;9.76;79.21;100378.96;88572;1278;82173;-73
2021/10/16 00:46:30;;;;;;;5.60;3.20;;;;;;;9.78;79.20;100380.89;88648;1280;96872;-73
2021/10/16 00:48:37;;;;;;;8.90;3.60;;;;;;;9.77;79.23;100380.13;88603;1280;88252;-62
2021/10/16 00:50:48;;;;;;;8.00;3.60;;;;;;;9.69;79.31;100382.14;88621;1279;94500;-64
2021/10/16 00:52:56;;;;;;;10.10;3.50;;;;;;;9.70;79.33;100379.66;88593;1279;80926;-60
2021/10/16 00:55:06;;;;;;;8.10;3.00;;;;;;;9.73;79.39;100384.05;88674;1280;81822;-63
2021/10/16 00:57:14;;;;;;;8.20;3.50;;;;;;;9.70;79.49;100389.73;88643;1279;95817;-62
2021/10/16 00:59:22;;;;;;;8.40;3.40;;;;;;;9.73;79.48;100394.35;88647;1279;88502;-61
2021/10/16 01:01:31;;;;;;;9.10;3.70;;;;;;;9.75;79.50;100395.95;88562;1279;94018;-62
2021/10/16 01:03:39;;;;;;;8.80;3.20;;;;;;;9.76;79.43;100395.44;88597;1279;81514;-62
2021/10/16 01:05:47;;;;;;;7.20;3.80;;;;;;;9.77;79.50;100393.76;88603;1280;79599;-63
2021/10/16 01:07:57;;;;;;;8.70;3.50;;;;;;;9.77;79.54;100397.89;88580;1280;96458;-63
2021/10/16 01:10:06;;;;;;;7.50;3.80;;;;;;;9.78;79.55;100401.86;88566;1279;88917;-62
2021/10/16 01:12:15;;;;;;;6.40;3.30;;;;;;;9.79;79.55;100396.39;88598;1280;94012;-61
2021/10/16 01:14:24;;;;;;;7.20;3.70;;;;;;;9.80;79.57;100397.33;88677;1281;79969;-74
2021/10/16 01:16:32;;;;;;;5.90;3.30;;;;;;;9.79;79.62;100400.64;88606;1281;81127;-74
2021/10/16 01:18:41;;;;;;;8.00;3.80;;;;;;;9.79;79.63;100396.39;88624;1279;96109;-61
2021/10/16 01:20:55;;;;;;;9.40;3.20;;;;;;;9.80;79.62;100394.80;88538;1280;88498;-63
2021/10/16 01:23:03;;;;;;;11.00;3.90;;;;;;;9.82;79.66;100393.08;88472;1281;96222;-60
2021/10/16 01:25:14;;;;;;;7.30;3.20;;;;;;;9.81;79.60;100396.60;88600;1280;80032;-74
2021/10/16 01:27:22;;;;;;;7.40;3.50;;;;;;;9.82;79.56;100387.89;88569;1280;81340;-73
2021/10/16 01:29:32;;;;;;;9.90;3.80;;;;;;;9.79;79.63;100389.42;88606;1280;97261;-74
2021/10/16 01:31:40;;;;;;;8.50;4.30;;;;;;;9.79;79.61;100394.40;88521;1280;87652;-75
2021/10/16 01:33:51;;;;;;;9.90;4.10;;;;;;;9.80;79.61;100394.84;88551;1280;95295;-63
2021/10/16 01:36:04;;;;;;;8.40;4.40;;;;;;;9.79;79.65;100399.25;88490;1280;79927;-61
2021/10/16 01:38:13;;;;;;;7.40;4.00;;;;;;;9.81;79.64;100398.86;88500;1280;82014;-62
2021/10/16 01:40:21;;;;;;;11.80;4.10;;;;;;;9.83;79.58;100403.02;88515;1281;97705;-73
2021/10/16 01:42:28;;;;;;;10.60;4.40;;;;;;;9.81;79.56;100403.86;88499;1281;88122;-72
2021/10/16 01:44:35;;;;;;;9.20;3.90;;;;;;;9.79;79.54;100407.65;88570;1280;94182;-74
2021/10/16 01:46:44;;;;;;;9.90;4.10;;;;;;;9.82;79.59;100409.14;88513;1281;79684;-74
2021/10/16 01:48:52;;;;;;;10.90;4.10;;;;;;;9.83;79.60;100407.07;88532;1280;81715;-61
2021/10/16 01:50:59;;;;;;;10.90;4.10;;;;;;;9.83;79.67;100409.90;88578;1280;96210;-63
2021/10/16 01:53:12;;;;;;;9.00;4.10;;;;;;;9.82;79.71;100414.00;88492;1280;88668;-63
2021/10/16 01:55:19;;;;;;;13.00;3.90;;;;;;;9.80;79.73;100419.45;88531;1281;94696;-74
2021/10/16 01:57:27;;;;;;;8.90;3.70;;;;;;;9.81;79.60;100420.91;88470;1278;80155;-74
2021/10/16 01:59:35;;;;;;;9.00;4.40;;;;;;;9.79;79.66;100422.26;88577;1279;80748;-63
2021/10/16 02:01:42;;;;;;;9.40;4.00;;;;;;;9.80;79.57;100421.77;88460;1281;98722;-62
2021/10/16 02:03:53;;;;;;;8.10;4.00;;;;;;;9.82;79.66;100422.30;88530;1281;88001;-62
2021/10/16 02:06:00;;;;;;;9.90;3.40;;;;;;;9.81;79.68;100428.36;88587;1278;94585;-62
2021/10/16 02:08:09;;;;;;;8.70;3.40;;;;;;;9.82;79.65;100430.77;88471;1280;81536;-62
2021/10/16 02:10:20;;;;;;;9.10;3.50;;;;;;;9.77;79.71;100427.33;88486;1281;81722;-61
2021/10/16 02:12:27;;;;;;;9.40;3.50;;;;;;;9.80;79.67;100430.28;88477;1278;98563;-61
2021/10/16 02:14:37;;;;;;;10.80;3.60;;;;;;;9.77;79.63;100432.38;88543;1280;88854;-62
2021/10/16 02:16:45;;;;;;;9.20;3.40;;;;;;;9.74;79.74;100432.79;88628;1278;91879;-62
2021/10/16 02:18:52;;;;;;;11.20;3.30;;;;;;;9.71;79.62;100436.42;88458;1279;81574;-63
2021/10/16 02:21:00;;;;;;;7.90;3.20;;;;;;;9.69;79.65;100438.23;88479;1280;83201;-62
2021/10/16 02:23:07;;;;;;;9.40;3.20;;;;;;;9.66;79.72;100440.02;88559;1280;96901;-62
2021/10/16 02:25:15;;;;;;;9.60;3.40;;;;;;;9.67;79.77;100436.70;88662;1280;88274;-74
2021/10/16 02:27:23;;;;;;;7.70;3.70;;;;;;;9.69;79.78;100437.65;88581;1279;95364;-73
2021/10/16 02:29:31;;;;;;;6.90;3.50;;;;;;;9.69;79.81;100439.10;88457;1280;77887;-61
2021/10/16 02:31:38;;;;;;;8.10;3.80;;;;;;;9.67;79.76;100439.93;88561;1280;80072;-60
2021/10/16 02:33:46;;;;;;;11.10;4.20;;;;;;;9.65;79.75;100446.60;88551;1279;97508;-73
2021/10/16 02:35:53;;;;;;;9.50;3.20;;;;;;;9.64;79.72;100448.56;88553;1280;88016;-75
2021/10/16 02:38:01;;;;;;;8.70;3.70;;;;;;;9.67;79.78;100450.35;88539;1280;94514;-74
2021/10/16 02:40:11;;;;;;;8.90;3.20;;;;;;;9.70;79.81;100453.96;88539;1280;79212;-74
2021/10/16 02:42:18;;;;;;;8.20;3.70;;;;;;;9.72;79.75;100457.09;88569;1281;82457;-74
2021/10/16 02:44:26;;;;;;;7.70;3.90;;;;;;;9.74;79.78;100458.86;88520;1280;97607;-62
2021/10/16 02:46:33;;;;;;;6.90;3.10;;;;;;;9.73;79.72;100460.29;88600;1279;88200;-63
2021/10/16 02:48:40;;;;;;;8.10;3.40;;;;;;;9.72;79.79;100467.20;88530;1279;94078;-74
2021/10/16 02:50:48;;;;;;;9.90;3.50;;;;;;;9.71;79.70;100471.14;88458;1281;78683;-72
2021/10/16 02:52:55;;;;;;;7.90;3.10;;;;;;;9.69;79.76;100473.80;88614;1280;82089;-73
2021/10/16 02:55:03;;;;;;;8.60;3.20;;;;;;;9.68;79.72;100472.88;88613;1278;97121;-62
2021/10/16 02:57:10;;;;;;;7.60;2.90;;;;;;;9.66;79.70;100473.14;88612;1279;87839;-62
2021/10/16 02:59:18;;;;;;;10.50;3.60;;;;;;;9.70;79.67;100468.52;88649;1280;93857;-74
2021/10/16 03:01:25;;;;;;;8.80;3.30;;;;;;;9.72;79.65;100462.48;88583;1280;81911;-71
2021/10/16 03:03:33;;;;;;;10.80;3.70;;;;;;;9.72;79.67;100460.00;88553;1279;82465;-75
2021/10/16 03:05:43;;;;;;;7.40;3.60;;;;;;;9.68;79.65;100465.14;88442;1280;97737;-76
2021/10/16 03:07:51;;;;;;;9.00;3.20;;;;;;;9.67;79.64;100466.77;88560;1281;86354;-73
2021/10/16 03:10:01;;;;;;;9.30;3.40;;;;;;;9.60;79.49;100464.92;88647;1279;94141;-65
2021/10/16 03:12:13;;;;;;;10.40;3.30;;;;;;;9.52;79.52;100465.09;88461;1280;80382;-67
2021/10/16 03:14:20;;;;;;;7.80;3.00;;;;;;;9.46;79.43;100468.33;88563;1280;82525;-76
2021/10/16 03:16:28;;;;;;;9.00;2.80;;;;;;;9.38;79.57;100466.91;88582;1281;95867;-76
2021/10/16 03:18:35;;;;;;;6.50;3.10;;;;;;;9.37;79.56;100469.42;88591;1280;87935;-75
2021/10/16 03:20:43;;;;;;;9.40;3.50;;;;;;;9.33;79.57;100472.73;88641;1280;94168;-75
2021/10/16 03:22:50;;;;;;;8.70;3.40;;;;;;;9.26;79.71;100475.02;88546;1281;82319;-79
2021/10/16 03:24:57;;;;;;;8.70;3.70;;;;;;;9.24;79.74;100480.13;88584;1280;82450;-61
2021/10/16 03:27:06;;;;;;;9.00;4.40;;;;;;;9.25;79.79;100485.38;88557;1280;97956;-63
2021/10/16 03:29:13;;;;;;;6.60;3.30;;;;;;;9.30;79.85;100490.73;88504;1281;86872;-76
2021/10/16 03:31:24;;;;;;;8.80;3.70;;;;;;;9.32;79.93;100493.51;88625;1279;92301;-73
2021/10/16 03:33:31;;;;;;;9.60;3.60;;;;;;;9.34;79.95;100495.81;88573;1271;78618;-63
2021/10/16 03:35:39;;;;;;;8.20;3.70;;;;;;;9.32;79.91;100500.59;88607;1280;80953;-63
2021/10/16 03:37:46;;;;;;;11.30;3.90;;;;;;;9.31;80.00;100500.46;88568;1280;98263;-61
2021/10/16 03:39:54;;;;;;;11.90;3.90;;;;;;;9.33;80.03;100502.02;88535;1279;86748;-62
2021/10/16 03:42:01;;;;;;;10.90;3.30;;;;;;;9.36;80.09;100508.30;88533;1280;94203;-63
2021/10/16 03:44:09;;;;;;;9.70;3.70;;;;;;;9.39;80.07;100509.94;88517;1281;79504;-63
2021/10/16 03:46:17;;;;;;;15.20;4.40;;;;;;;9.41;80.06;100510.77;88631;1279;82704;-63
2021/10/16 03:48:24;;;;;;;8.80;4.70;;;;;;;9.42;80.08;100514.10;88562;1280;96932;-71
2021/10/16 03:50:32;;;;;;;9.30;4.60;;;;;;;9.40;80.05;100514.65;88564;1280;88225;-79
2021/10/16 03:52:40;;;;;;;9.40;4.20;;;;;;;9.42;80.05;100513.73;88541;1279;95358;-76
2021/10/16 03:54:47;;;;;;;9.30;4.20;;;;;;;9.44;80.08;100515.13;88566;1281;79768;-75
2021/10/16 03:56:54;;;;;;;11.00;4.80;;;;;;;9.45;80.06;100515.33;88502;1280;81369;-78
2021/10/16 03:59:02;;;;;;;10.20;4.70;;;;;;;9.46;80.10;100510.20;88569;1280;97881;-74
2021/10/16 04:01:09;;;;;;;13.40;5.50;;;;;;;9.46;80.06;100508.07;88541;1280;86770;-73
2021/10/16 04:03:16;;;;;;;10.10;5.30;;;;;;;9.46;80.00;100508.61;88573;1279;93832;-75
2021/10/16 04:05:24;;;;;;;9.20;5.20;;;;;;;9.46;80.01;100511.80;88549;1280;81043;-75
2021/10/16 04:07:35;;;;;;;10.00;4.60;;;;;;;9.44;80.13;100512.77;88586;1280;81343;-74
2021/10/16 04:09:42;;;;;;;10.50;5.50;;;;;;;9.44;80.11;100509.70;88622;1281;96603;-63
2021/10/16 04:11:49;;;;;;;8.40;5.20;;;;;;;9.45;80.13;100512.33;88593;1280;88009;-63
2021/10/16 04:13:57;;;;;;;10.00;5.10;;;;;;;9.46;80.10;100509.14;88493;1280;94220;-63
2021/10/16 04:16:05;;;;;;;7.60;4.90;;;;;;;9.45;80.09;100509.22;88602;1280;81487;-64
2021/10/16 04:18:12;;;;;;;12.30;5.30;;;;;;;9.46;79.99;100511.69;88505;1280;81856;-63
2021/10/16 04:20:21;;;;;;;11.30;5.10;;;;;;;9.47;80.05;100510.77;88631;1281;98455;-74
2021/10/16 04:22:28;;;;;;;11.60;6.10;;;;;;;9.49;80.03;100516.01;88579;1279;88321;-74
2021/10/16 04:24:39;;;;;;;8.40;4.50;;;;;;;9.49;80.08;100516.30;88555;1281;94321;-63
2021/10/16 04:26:50;;;;;;;12.40;5.40;;;;;;;9.49;80.00;100519.20;88589;1281;81438;-63
2021/10/16 04:28:58;;;;;;;12.70;4.90;;;;;;;9.44;80.01;100517.63;88584;1279;80891;-74
2021/10/16 04:31:05;;;;;;;12.20;5.00;;;;;;;9.43;80.00;100518.06;88583;1280;96698;-74
2021/10/16 04:33:17;;;;;;;10.60;4.90;;;;;;;9.45;80.08;100517.75;88546;1281;88443;-74
2021/10/16 04:35:24;;;;;;;9.20;4.70;;;;;;;9.47;80.07;100517.27;88587;1280;94527;-77
2021/10/16 04:37:33;;;;;;;12.90;4.80;;;;;;;9.47;80.04;100520.36;88620;1280;80133;-75
2021/10/16 04:39:44;;;;;;;13.90;5.10;;;;;;;9.44;80.08;100526.22;88610;1280;81615;-63
2021/10/16 04:41:51;;;;;;;8.50;4.30;;;;;;;9.46;80.03;100525.86;88512;1281;98558;-62
2021/10/16 04:43:59;;;;;;;12.10;4.30;;;;;;;9.47;80.05;100524.15;88584;1281;87918;-73
2021/10/16 04:46:06;;;;;;;10.00;4.30;;;;;;;9.47;80.08;100522.33;88611;1281;94870;-75
2021/10/16 04:48:14;;;;;;;10.10;4.50;;;;;;;9.47;80.02;100527.52;88638;1279;78817;-73
2021/10/16 04:50:26;;;;;;;7.20;4.20;;;;;;;9.46;80.00;100532.64;88591;1281;79186;-75
2021/10/16 04:52:37;;;;;;;14.80;6.10;;;;;;;9.47;80.00;100535.23;88598;1280;97941;-77
2021/10/16 04:54:45;;;;;;;10.50;4.50;;;;;;;9.47;79.92;100533.45;88654;1280;89137;-62
2021/10/16 04:56:52;;;;;;;10.10;4.20;;;;;;;9.47;79.94;100533.99;88552;1280;93804;-63
2021/10/16 04:58:59;;;;;;;9.50;4.40;;;;;;;9.48;79.97;100536.87;88612;1280;78541;-73
2021/10/16 05:01:07;;;;;;;8.10;4.20;;;;;;;9.48;79.97;100539.67;88590;1280;82694;-74
2021/10/16 05:03:17;;;;;;;9.40;4.50;;;;;;;9.50;80.01;100541.34;88562;1280;96919;-74
2021/10/16 05:05:26;;;;;;;13.00;4.80;;;;;;;9.48;80.05;100543.71;88560;1279;88296;-61
2021/10/16 05:07:33;;;;;;;7.50;4.50;;;;;;;9.47;80.03;100544.80;88558;1280;95103;-63
2021/10/16 05:09:45;;;;;;;9.60;4.20;;;;;;;9.46;79.95;100543.27;88454;1281;81365;-61
2021/10/16 05:11:52;;;;;;;8.30;4.10;;;;;;;9.48;80.01;100545.00;88560;1280;82598;-60
2021/10/16 05:14:00;;;;;;;6.70;4.00;;;;;;;9.49;79.99;100541.80;88578;1280;98750;-74
2021/10/16 05:16:07;;;;;;;8.80;5.10;;;;;;;9.50;79.94;100543.33;88491;1281;87510;-72
2021/10/16 05:18:15;;;;;;;10.30;4.80;;;;;;;9.49;79.99;100546.03;88558;1281;94867;-73
2021/10/16 05:20:26;;;;;;;13.20;5.10;;;;;;;9.47;79.98;100545.52;88599;1280;78712;-62
2021/10/16 05:22:34;;;;;;;12.00;4.60;;;;;;;9.49;79.91;100548.33;88557;1280;81518;-63
2021/10/16 05:24:42;;;;;;;9.20;4.20;;;;;;;9.49;79.92;100551.60;88619;1279;98148;-63
2021/10/16 05:26:49;;;;;;;9.10;4.50;;;;;;;9.51;79.92;100555.42;88558;1279;88094;-62
2021/10/16 05:28:59;;;;;;;10.50;5.00;;;;;;;9.50;79.98;100555.86;88559;1281;94509;-62
2021/10/16 05:31:10;;;;;;;9.50;5.00;;;;;;;9.53;79.94;100556.91;88633;1280;78801;-62
2021/10/16 05:33:18;;;;;;;10.60;4.90;;;;;;;9.55;79.97;100558.81;88462;1278;80729;-62
2021/10/16 05:35:26;;;;;;;11.00;5.00;;;;;;;9.56;79.89;100563.65;88563;1281;97985;-74
2021/10/16 05:37:33;;;;;;;11.20;5.20;;;;;;;9.55;79.92;100563.42;88546;1280;87351;-72
2021/10/16 05:39:41;;;;;;;9.00;4.80;;;;;;;9.55;79.97;100567.20;88526;1280;94866;-61
2021/10/16 05:41:48;;;;;;;14.40;5.40;;;;;;;9.56;79.98;100572.45;88455;1281;78185;-61
2021/10/16 05:43:56;;;;;;;11.10;5.30;;;;;;;9.57;80.02;100575.11;88569;1280;81883;-62
2021/10/16 05:46:03;;;;;;;9.90;5.00;;;;;;;9.57;80.02;100579.23;88622;1280;97953;-62
2021/10/16 05:48:11;;;;;;;10.30;5.00;;;;;;;9.58;80.00;100584.01;88567;1280;87550;-62
2021/10/16 05:50:18;;;;;;;8.10;5.10;;;;;;;9.59;79.98;100584.56;88629;1280;93544;-74
2021/10/16 05:52:26;;;;;;;11.50;5.40;;;;;;;9.60;79.94;100588.16;88456;1281;80728;-75
2021/10/16 05:54:33;;;;;;;10.60;5.40;;;;;;;9.60;79.94;100589.05;88631;1280;81454;-73
2021/10/16 05:56:44;;;;;;;8.40;5.20;;;;;;;9.56;79.88;100589.25;88603;1281;98911;-73
2021/10/16 05:58:58;;;;;;;10.40;4.30;;;;;;;9.58;79.85;100594.05;88594;1281;88721;-62
2021/10/16 06:01:06;;;;;;;9.10;3.80;;;;;;;9.58;79.69;100596.67;88562;1281;95609;-62
2021/10/16 06:03:14;;;;;;;6.30;3.40;;;;;;;9.59;79.52;100603.44;88543;1281;81439;-62
2021/10/16 06:05:22;;;;;;;7.30;3.20;;;;;;;9.60;79.35;100604.39;88607;1281;81058;-64
2021/10/16 06:07:29;;;;;;;10.90;3.10;;;;;;;9.61;79.28;100608.06;88567;1279;96641;-63
2021/10/16 06:09:37;;;;;;;6.50;2.70;;;;;;;9.62;79.19;100612.19;88441;1281;86586;-75
2021/10/16 06:11:44;;;;;;;10.80;3.10;;;;;;;9.59;79.17;100613.98;88547;1280;94865;-73
2021/10/16 06:13:51;;;;;;;7.80;3.10;;;;;;;9.61;79.11;100615.63;88495;1280;78373;-62
2021/10/16 06:15:59;;;;;;;8.70;3.40;;;;;;;9.60;79.07;100615.52;88579;1280;81493;-62
2021/10/16 06:18:10;;;;;;;8.40;2.80;;;;;;;9.60;79.00;100623.77;88450;1280;95951;-62
2021/10/16 06:20:21;;;;;;;8.40;3.20;;;;;;;9.64;78.92;100624.72;88581;1280;88431;-74
2021/10/16 06:22:31;;;;;;;9.70;3.80;;;;;;;9.68;78.86;100624.50;88471;1280;93514;-74
2021/10/16 06:24:38;;;;;;;9.10;3.20;;;;;;;9.70;78.95;100625.90;88631;1281;79953;-73
2021/10/16 06:26:46;;;;;;;9.60;3.00;;;;;;;9.71;78.93;100626.27;88562;1280;81468;-73
2021/10/16 06:28:53;;;;;;;7.50;2.80;;;;;;;9.72;78.89;100625.83;88593;1279;98664;-62
2021/10/16 06:31:01;;;;;;;9.00;3.00;;;;;;;9.72;78.85;100630.69;88578;1281;88119;-61
2021/10/16 06:33:09;;;;;;;10.30;3.70;;;;;;;9.72;78.92;100635.10;88544;1279;95055;-63
2021/10/16 06:35:16;;;;;;;10.00;3.60;;;;;;;9.74;78.91;100639.11;88355;1280;249179;-74
2021/10/16 06:37:23;;;;;;;8.60;4.40;;;;;;;9.74;78.99;100643.02;88541;1281;81992;-74
2021/10/16 06:39:34;;;;;;;8.60;3.80;;;;;;;9.76;78.94;100643.33;88600;1280;98794;-61
2021/10/16 06:41:41;;;;;;;10.50;4.00;;;;;;;9.80;78.98;100646.45;88545;1280;89595;-63
2021/10/16 06:43:51;;;;;;;12.40;5.10;;;;;;;9.84;78.93;100646.48;88529;1280;95108;-62
2021/10/16 06:46:02;;;;;;;10.40;4.40;;;;;;;9.86;78.90;100644.95;88648;1281;80689;-62
2021/10/16 06:48:09;;;;;;;14.00;3.80;;;;;;;9.93;78.79;100647.56;88619;1279;81299;-62
2021/10/16 06:50:17;;;;;;;9.70;3.20;;;;;;;10.00;78.88;100649.41;88548;1281;98693;-62
2021/10/16 06:52:24;;;;;;;13.90;3.90;;;;;;;10.08;78.83;100653.95;88583;1281;87450;-62
2021/10/16 06:54:33;;;;;;;9.50;3.20;;;;;;;10.12;78.62;100654.41;88627;1280;93017;-73
2021/10/16 06:56:40;;;;;;;10.10;3.40;;;;;;;10.15;78.42;100658.25;88627;1280;79631;-73
2021/10/16 06:58:48;;;;;;;11.60;3.20;;;;;;;10.20;78.29;100662.34;88612;1281;81263;-75
2021/10/16 07:00:56;;;;;;;9.40;3.30;;;;;;;10.23;78.17;100663.89;88727;1277;97103;-73
2021/10/16 07:03:03;;;;;;;7.30;2.80;;;;;;;10.28;77.95;100667.63;88705;1278;87049;-73
2021/10/16 07:05:11;;;;;;;7.70;2.70;;;;;;;10.32;77.73;100671.79;88724;1277;94527;-62
2021/10/16 07:07:19;;;;;;;12.50;2.70;;;;;;;10.32;77.62;100671.98;88666;1277;79141;-63
2021/10/16 07:09:26;;;;;;;5.30;2.30;;;;;;;10.32;77.50;100675.43;88754;1278;82166;-63
2021/10/16 07:11:37;;;;;;;8.80;2.90;;;;;;;10.29;77.45;100677.06;88704;1277;97210;-62
2021/10/16 07:13:44;;;;;;;6.90;2.80;;;;;;;10.30;77.30;100678.92;88679;1277;88636;-63
2021/10/16 07:15:52;;;;;;;8.40;2.90;;;;;;;10.32;77.24;100679.50;88725;1277;93474;-63
2021/10/16 07:17:59;;;;;;;8.90;2.90;;;;;;;10.37;77.21;100682.04;88694;1278;78615;-61
2021/10/16 07:20:10;;;;;;;9.20;3.10;;;;;;;10.42;77.29;100683.79;88661;1277;82464;-73
2021/10/16 07:22:17;;;;;;;10.60;2.90;;;;;;;10.48;77.30;100683.56;88689;1277;98046;-75
2021/10/16 07:24:24;;;;;;;8.60;2.50;;;;;;;10.49;77.21;100689.04;88740;1277;88153;-58
2021/10/16 07:26:33;;;;;;;10.00;3.30;;;;;;;10.56;77.11;100689.77;88730;1277;94783;-67
2021/10/16 07:28:40;;;;;;;9.70;2.80;;;;;;;10.69;77.19;100690.00;88709;1277;82375;-75
2021/10/16 07:30:48;;;;;;;10.50;2.70;;;;;;;10.90;77.14;100695.64;88769;1277;81628;-76
2021/10/16 07:32:55;;;;;;;9.40;2.60;;;;;;;11.05;76.90;100694.64;88755;1277;98874;-75
2021/10/16 07:35:07;;;;;;;8.60;3.20;;;;;;;11.12;76.72;100696.36;88774;1277;88467;-76
2021/10/16 07:37:15;;;;;;;11.40;3.40;;;;;;;11.17;76.62;100700.89;88694;1277;94115;-76
2021/10/16 07:39:22;;;;;;;12.90;3.70;;;;;;;11.20;76.47;100703.10;88708;1278;78672;-76
2021/10/16 07:41:30;;;;;;;8.30;3.00;;;;;;;11.22;76.29;100706.63;88759;1277;80501;-76
2021/10/16 07:43:37;;;;;;;9.90;3.70;;;;;;;11.36;76.14;100710.65;88789;1277;97327;-65
2021/10/16 07:45:45;;;;;;;10.30;2.70;;;;;;;11.47;75.98;100712.25;88742;1277;88691;-65
2021/10/16 07:47:52;;;;;;;13.60;2.70;;;;;;;11.55;75.78;100715.27;88690;1276;93114;-64
2021/10/16 07:50:00;;;;;;;8.80;3.00;;;;;;;11.63;75.67;100717.09;88718;1275;81124;-76
2021/10/16 07:52:07;;;;;;;7.80;3.10;;;;;;;11.67;75.37;100716.02;88713;1277;80924;-76
2021/10/16 07:54:14;;;;;;;10.80;3.30;;;;;;;11.68;75.29;100718.42;88693;1277;98783;-76
2021/10/16 07:56:22;;;;;;;6.30;2.60;;;;;;;11.72;75.11;100721.27;88793;1277;86529;-75
2021/10/16 07:58:29;;;;;;;11.20;3.10;;;;;;;11.67;74.85;100723.14;88679;1277;94667;-73
2021/10/16 08:00:39;;;;;;;8.50;3.10;;;;;;;11.65;74.92;100722.61;88695;1277;79014;-74
2021/10/16 08:02:48;;;;;;;9.20;3.00;;;;;;;11.67;74.74;100721.60;88690;1276;82604;-74
2021/10/16 08:04:59;;;;;;;10.30;3.10;;;;;;;11.72;74.55;100722.73;88664;1277;96967;-64
2021/10/16 08:07:06;;;;;;;12.40;3.30;;;;;;;11.78;74.40;100720.40;88684;1276;88467;-64
2021/10/16 08:09:14;;;;;;;8.80;3.50;;;;;;;11.82;74.30;100722.98;88675;1277;94493;-64
2021/10/16 08:11:22;;;;;;;10.70;3.20;;;;;;;11.81;74.09;100722.06;88688;1277;78686;-64
2021/10/16 08:13:30;;;;;;;8.30;3.10;;;;;;;11.91;74.10;100727.30;88748;1277;81903;-64
2021/10/16 08:15:37;;;;;;;13.10;3.70;;;;;;;12.02;73.97;100724.23;88722;1277;98003;-63
2021/10/16 08:17:45;;;;;;;8.00;3.40;;;;;;;12.06;73.79;100723.98;88694;1277;87973;-64
2021/10/16 08:19:55;;;;;;;11.70;3.20;;;;;;;12.15;73.58;100726.46;88666;1277;93516;-65
2021/10/16 08:22:02;;;;;;;9.60;3.30;;;;;;;12.18;73.47;100725.36;88682;1277;80052;-65
2021/10/16 08:24:10;;;;;;;11.40;3.60;;;;;;;12.36;73.19;100726.18;88695;1277;81955;-77
2021/10/16 08:26:17;;;;;;;10.30;4.00;;;;;;;12.49;72.86;100729.02;88759;1277;98700;-76
2021/10/16 08:28:25;;;;;;;11.60;3.20;;;;;;;12.62;72.51;100730.10;88751;1277;87878;-68
2021/10/16 08:30:35;;;;;;;9.00;3.50;;;;;;;12.85;72.45;100728.52;88783;1277;94005;-75
2021/10/16 08:32:43;;;;;;;14.70;3.60;;;;;;;12.98;72.09;100732.67;88709;1277;79669;-75
2021/10/16 08:34:51;;;;;;;10.00;2.80;;;;;;;13.15;71.75;100734.04;88778;1277;81028;-63
2021/10/16 08:37:01;;;;;;;11.10;3.60;;;;;;;13.69;71.88;100732.08;88742;1277;98294;-68
2021/10/16 08:39:12;;;;;;;8.20;2.70;;;;;;;14.47;71.16;100734.80;88773;1277;86901;-66
2021/10/16 08:41:23;;;;;;;9.60;2.90;;;;;;;14.49;69.91;100732.63;88683;1277;94573;-64
2021/10/16 08:43:30;;;;;;;8.60;3.50;;;;;;;14.50;69.68;100732.59;88707;1276;78380;-60
2021/10/16 08:45:41;;;;;;;9.80;2.90;;;;;;;14.80;69.43;100732.67;88762;1277;81116;-65
2021/10/16 08:47:49;;;;;;;11.30;4.10;;;;;;;14.90;68.56;100732.17;88684;1277;98239;-62
2021/10/16 08:49:58;;;;;;;12.00;3.60;;;;;;;15.63;68.87;100734.39;88783;1277;87662;-64
2021/10/16 08:52:07;;;;;;;11.40;3.70;;;;;;;15.57;67.58;100736.42;88712;1276;94417;-64
2021/10/16 08:54:17;;;;;;;8.30;3.30;;;;;;;15.19;67.12;100743.50;88799;1278;78717;-71
2021/10/16 08:56:27;;;;;;;8.70;2.70;;;;;;;14.63;66.54;100746.11;88707;1277;81966;-77
2021/10/16 08:58:37;;;;;;;9.20;3.00;;;;;;;14.21;66.64;100747.16;88680;1277;96935;-70
2021/10/16 09:00:52;;;;;;;9.60;3.60;;;;;;;13.88;66.45;100751.77;88742;1277;88402;-74
2021/10/16 09:03:17;;;;;;;8.30;2.50;;;;;;;13.50;66.43;100755.81;88790;1277;94093;-75
2021/10/16 09:05:25;;;;;;;7.60;2.80;;;;;;;13.33;66.39;100759.80;88739;1277;78470;-66
2021/10/16 09:07:35;;;;;;;7.80;2.40;;;;;;;13.30;66.40;100756.69;88690;1278;80668;-60
2021/10/16 09:09:43;;;;;;;6.90;2.30;;;;;;;13.44;66.86;100753.82;88771;1277;98644;-61
2021/10/16 09:11:53;;;;;;;6.40;2.30;;;;;;;13.42;66.07;100750.58;88706;1276;88394;-59
2021/10/16 09:14:08;;;;;;;8.00;2.70;;;;;;;13.88;67.55;100756.05;88722;1277;94749;-59
2021/10/16 09:16:30;;;;;;;10.10;3.70;;;;;;;14.17;66.14;100757.64;88715;1277;79065;-59
2021/10/16 09:18:37;;;;;;;9.80;3.10;;;;;;;14.60;66.05;100759.97;88723;1277;80528;-70
2021/10/16 09:20:48;;;;;;;10.20;2.40;;;;;;;14.49;65.37;100754.84;88721;1277;97865;-69
2021/10/16 09:23:10;;;;;;;8.30;2.70;;;;;;;15.19;66.26;100754.70;88715;1277;87869;-68
2021/10/16 09:25:26;;;;;;;8.60;3.10;;;;;;;16.79;66.11;100752.13;88790;1278;93954;-69
2021/10/16 09:27:37;;;;;;;8.30;2.50;;;;;;;17.56;64.18;100755.27;88713;1278;77579;-70
2021/10/16 09:29:47;;;;;;;7.10;2.50;;;;;;;17.40;62.73;100758.98;88760;1278;82508;-71
2021/10/16 09:31:58;;;;;;;8.20;3.20;;;;;;;17.12;62.20;100767.06;88759;1277;99157;-74
2021/10/16 09:34:07;;;;;;;7.00;2.70;;;;;;;16.75;61.31;100767.72;88742;1277;88644;-74
2021/10/16 09:36:26;;;;;;;7.60;3.10;;;;;;;16.20;61.05;100770.15;88772;1277;94112;-70
2021/10/16 09:38:44;;;;;;;7.60;2.90;;;;;;;15.69;60.94;100783.90;88773;1277;79326;-68
2021/10/16 09:40:54;;;;;;;6.30;2.70;;;;;;;15.18;60.90;100782.34;88780;1278;81098;-67
2021/10/16 09:43:18;;;;;;;8.60;2.60;;;;;;;14.89;61.13;100784.81;88687;1277;99420;-67
2021/10/16 09:45:24;;;;;;;;;;;;;;;14.65;61.55;100784.77;88780;1277;89305;-68
2021/10/16 09:47:32;;;;;;;8.20;3.00;;;;;;;14.57;61.66;100785.89;88676;1278;94518;-68
2021/10/16 09:49:43;;;;;;;7.70;2.50;;;;;;;14.45;61.73;100785.23;88756;1277;79843;-62
2021/10/16 09:51:54;;;;;;;7.00;2.60;;;;;;;14.36;61.82;100787.05;88701;1278;82488;-63
2021/10/16 09:54:11;;;;;;;7.00;2.20;;;;;;;14.36;61.95;100794.91;88719;1277;98341;-61
2021/10/16 09:56:19;;;;;;;7.70;2.50;;;;;;;14.28;61.94;100792.93;88742;1277;88394;-64
2021/10/16 09:58:28;;;;;;;8.70;2.90;;;;;;;14.31;62.21;100798.51;88649;1277;94574;-73
2021/10/16 10:00:38;;;;;;;11.50;3.30;;;;;;;14.31;62.24;100795.96;88717;1276;78770;-74
2021/10/16 10:02:58;;;;;;;6.90;2.50;;;;;;;14.23;62.27;100793.45;88772;1277;82361;-76